createdAt,value
2023-01-17T00:02:19.489Z,101829.22
2023-01-17T00:05:41.817Z,101839.66
2023-01-17T00:09:04.299Z,101839.38
2023-01-17T00:12:08.771Z,101827.41
2023-01-17T00:15:12.789Z,101821.34
2023-01-17T00:18:17.760Z,101834.69
2023-01-17T00:21:39.691Z,101821.78
2023-01-17T00:25:05.381Z,101810.75
2023-01-17T00:28:09.309Z,101819.63
2023-01-17T00:31:15.489Z,101820.41
2023-01-17T00:34:19.275Z,101816.56
2023-01-17T00:37:23.377Z,101806.59
2023-01-17T00:40:27.407Z,101797.94
2023-01-17T00:43:50.798Z,101798.28
2023-01-17T00:47:13.169Z,101786.13
2023-01-17T00:50:35.664Z,101798.25
2023-01-17T00:53:57.982Z,101763.41
2023-01-17T00:57:20.903Z,101788.78
2023-01-17T01:00:43.986Z,101795.88
2023-01-17T01:04:06.559Z,101787.53
2023-01-17T01:07:28.808Z,101799.34
2023-01-17T01:10:52.975Z,101791.78
2023-01-17T01:14:15.519Z,101796.38
2023-01-17T01:17:38.138Z,101772.78
2023-01-17T01:21:00.522Z,101782.94
2023-01-17T01:24:23.204Z,101765.34
2023-01-17T01:27:46.280Z,101764.06
2023-01-17T01:31:08.931Z,101762.91
2023-01-17T01:34:13.438Z,101758.50
2023-01-17T01:37:19.977Z,101701.06
2023-01-17T01:40:24.661Z,101722.41
2023-01-17T01:43:44.596Z,101713.84
2023-01-17T01:46:51.457Z,101738.09
2023-01-17T01:49:56.319Z,101746.34
2023-01-17T01:53:04.843Z,101743.47
2023-01-17T01:56:12.716Z,101726.41
2023-01-17T01:59:20.525Z,101722.53
2023-01-17T02:02:24.330Z,101725.97
2023-01-17T02:05:31.732Z,101692.41
2023-01-17T02:08:36.306Z,101687.31
2023-01-17T02:11:42.500Z,101722.09
2023-01-17T02:14:46.299Z,101710.88
2023-01-17T02:18:12.815Z,101708.47
2023-01-17T02:21:40.919Z,101686.78
2023-01-17T02:25:22.655Z,101706.47
2023-01-17T02:29:06.517Z,101706.97
2023-01-17T02:32:29.064Z,101701.72
2023-01-17T02:35:42.271Z,101705.47
2023-01-17T02:38:55.733Z,101680.03
2023-01-17T02:42:07.468Z,101680.88
2023-01-17T02:45:25.873Z,101684.78
2023-01-17T02:48:34.329Z,101672.47
2023-01-17T02:52:20.279Z,101657.25
2023-01-17T02:55:42.707Z,101681.13
2023-01-17T02:59:31.864Z,101658.88
2023-01-17T03:02:50.176Z,101656.69
2023-01-17T03:06:17.790Z,101663.38
2023-01-17T03:09:23.535Z,101650.25
2023-01-17T03:12:30.138Z,101632.69
2023-01-17T03:15:34.291Z,101626.81
2023-01-17T03:18:39.164Z,101619.59
2023-01-17T03:21:42.965Z,101631.94
2023-01-17T03:24:47.554Z,101616.47
2023-01-17T03:27:51.897Z,101603.34
2023-01-17T03:30:56.377Z,101593.63
2023-01-17T03:34:00.250Z,101602.59
2023-01-17T03:37:04.670Z,101613.19
2023-01-17T03:40:09.696Z,101587.63
2023-01-17T03:43:14.110Z,101571.78
2023-01-17T03:46:24.902Z,101585.47
2023-01-17T03:49:30.790Z,101545.34
2023-01-17T03:52:34.741Z,101567.28
2023-01-17T03:55:39.122Z,101568.91
2023-01-17T03:58:46.626Z,101567.06
2023-01-17T04:01:51.638Z,101550.28
2023-01-17T04:04:55.543Z,101560.47
2023-01-17T04:08:00.364Z,101558.59
2023-01-17T04:11:04.190Z,101531.31
2023-01-17T04:14:08.521Z,101530.78
2023-01-17T04:17:13.793Z,101547.88
2023-01-17T04:20:37.117Z,101529.03
2023-01-17T04:23:40.925Z,101540.19
2023-01-17T04:26:45.451Z,101519.72
2023-01-17T04:29:49.389Z,101534.94
2023-01-17T04:32:54.120Z,101513.22
2023-01-17T04:36:00.607Z,101525.78
2023-01-17T04:39:07.435Z,101515.97
2023-01-17T04:42:11.189Z,101481.91
2023-01-17T04:45:16.386Z,101518.84
2023-01-17T04:48:20.518Z,101511.22
2023-01-17T04:51:24.936Z,101497.75
2023-01-17T04:54:29.045Z,101482.22
2023-01-17T04:57:34.003Z,101450.69
2023-01-17T05:00:37.850Z,101474.84
2023-01-17T05:03:42.727Z,101476.06
2023-01-17T05:06:47.002Z,101479.84
2023-01-17T05:09:51.626Z,101467.13
2023-01-17T05:13:00.098Z,101461.97
2023-01-17T05:16:07.756Z,101421.88
2023-01-17T05:19:11.713Z,101453.31
2023-01-17T05:22:16.512Z,101464.69
2023-01-17T05:25:20.721Z,101448.56
2023-01-17T05:28:25.397Z,101428.34
2023-01-17T05:31:29.227Z,101444.34
2023-01-17T05:34:36.380Z,101413.59
2023-01-17T05:37:40.471Z,101443.72
2023-01-17T05:40:44.944Z,101428.34
2023-01-17T05:43:48.669Z,101462.75
2023-01-17T05:46:53.098Z,101455.56
2023-01-17T05:49:57.127Z,101453.94
2023-01-17T05:53:06.809Z,101449.38
2023-01-17T05:56:10.551Z,101433.84
2023-01-17T05:59:18.758Z,101427.59
2023-01-17T06:02:24.434Z,101432.38
2023-01-17T06:05:30.504Z,101426.09
2023-01-17T06:08:34.752Z,101397.56
2023-01-17T06:11:39.118Z,101414.75
2023-01-17T06:14:42.963Z,101426.84
2023-01-17T06:17:47.549Z,101407.28
2023-01-17T06:20:55.469Z,101394.72
2023-01-17T06:23:59.754Z,101419.16
2023-01-17T06:27:03.684Z,101414.75
2023-01-17T06:30:09.142Z,101300.94
2023-01-17T06:33:14.114Z,101390.09
2023-01-17T06:36:18.929Z,101392.34
2023-01-17T06:39:22.833Z,101381.25
2023-01-17T06:42:27.144Z,101384.38
2023-01-17T06:45:32.351Z,101383.44
2023-01-17T06:48:36.938Z,101355.66
2023-01-17T06:51:43.455Z,101382.44
2023-01-17T06:54:47.976Z,101382.91
2023-01-17T06:57:52.281Z,101364.56
2023-01-17T07:00:56.740Z,101367.09
2023-01-17T07:04:00.708Z,101372.53
2023-01-17T07:07:05.612Z,101370.91
2023-01-17T07:10:10.802Z,101356.13
2023-01-17T07:13:15.600Z,101319.53
2023-01-17T07:16:20.068Z,101350.44
2023-01-17T07:19:25.453Z,101352.13
2023-01-17T07:22:29.301Z,101358.97
2023-01-17T07:25:33.852Z,101351.38
2023-01-17T07:28:37.701Z,101326.09
2023-01-17T07:31:42.292Z,101319.94
2023-01-17T07:34:46.165Z,101329.06
2023-01-17T07:37:52.425Z,101346.66
2023-01-17T07:41:00.439Z,101350.84
2023-01-17T07:44:07.731Z,101326.47
2023-01-17T07:47:12.138Z,101253.91
2023-01-17T07:50:16.409Z,101304.81
2023-01-17T07:53:20.220Z,101305.09
2023-01-17T07:56:24.892Z,101319.13
2023-01-17T07:59:28.947Z,101331.72
2023-01-17T08:02:35.936Z,101314.31
2023-01-17T08:05:39.734Z,101310.81
2023-01-17T08:08:44.764Z,101309.31
2023-01-17T08:11:48.580Z,101320.22
2023-01-17T08:14:53.306Z,101325.59
2023-01-17T08:17:58.480Z,101313.50
2023-01-17T08:21:03.041Z,101314.38
2023-01-17T08:24:07.156Z,101324.53
2023-01-17T08:27:11.716Z,101336.63
2023-01-17T08:30:16.083Z,101337.94
2023-01-17T08:33:21.919Z,101336.97
2023-01-17T08:36:26.684Z,101314.81
2023-01-17T08:39:31.656Z,101332.63
2023-01-17T08:42:40.471Z,101309.59
2023-01-17T08:45:49.329Z,101328.31
2023-01-17T08:48:59.492Z,101310.84
2023-01-17T08:52:06.246Z,101287.00
2023-01-17T08:55:12.374Z,101310.34
2023-01-17T08:58:17.951Z,101306.91
2023-01-17T09:01:21.839Z,101303.31
2023-01-17T09:04:26.944Z,101292.19
2023-01-17T09:07:30.966Z,101314.00
2023-01-17T09:10:35.680Z,101300.84
2023-01-17T09:13:40.363Z,101319.97
2023-01-17T09:16:44.563Z,101322.13
2023-01-17T09:19:49.449Z,101320.13
2023-01-17T09:22:53.322Z,101303.75
2023-01-17T09:25:59.204Z,101307.22
2023-01-17T09:29:04.036Z,101299.44
2023-01-17T09:32:07.792Z,101272.84
2023-01-17T09:35:12.815Z,101283.25
2023-01-17T09:38:18.024Z,101284.13
2023-01-17T09:41:29.540Z,101265.03
2023-01-17T09:44:42.221Z,101264.66
2023-01-17T09:47:53.874Z,101277.03
2023-01-17T09:51:20.742Z,101238.22
2023-01-17T09:54:28.402Z,101250.75
2023-01-17T09:57:55.140Z,101259.22
2023-01-17T10:01:04.552Z,101261.88
2023-01-17T10:04:26.558Z,101266.97
2023-01-17T10:07:54.725Z,101266.38
2023-01-17T10:11:55.916Z,101213.41
2023-01-17T10:15:08.467Z,101249.16
2023-01-17T10:18:33.164Z,101268.56
2023-01-17T10:21:43.109Z,101274.06
2023-01-17T10:25:05.101Z,101257.88
2023-01-17T10:28:15.380Z,101273.97
2023-01-17T10:31:26.112Z,101270.38
2023-01-17T10:34:44.661Z,101245.81
2023-01-17T10:37:51.027Z,101235.50
2023-01-17T10:41:19.568Z,101262.34
2023-01-17T10:44:52.497Z,101262.75
2023-01-17T10:48:13.918Z,101232.06
2023-01-17T10:51:25.800Z,101221.16
2023-01-17T10:54:52.606Z,101273.56
2023-01-17T10:57:58.939Z,101245.16
2023-01-17T11:01:20.692Z,101226.91
2023-01-17T11:04:38.325Z,101267.72
2023-01-17T11:08:16.003Z,101268.06
2023-01-17T11:11:22.121Z,101275.63
2023-01-17T11:14:27.945Z,101265.91
2023-01-17T11:17:32.667Z,101272.31
2023-01-17T11:20:44.339Z,101276.88
2023-01-17T11:24:02.141Z,101266.81
2023-01-17T11:27:08.986Z,101276.66
2023-01-17T11:30:19.450Z,101270.06
2023-01-17T11:33:54.874Z,101264.19
2023-01-17T11:37:23.523Z,101274.69
2023-01-17T11:40:29.968Z,101271.22
2023-01-17T11:43:33.869Z,101249.16
2023-01-17T11:46:39.850Z,101244.59
2023-01-17T11:49:48.430Z,101280.44
2023-01-17T11:52:53.139Z,101281.22
2023-01-17T11:55:58.299Z,101282.84
2023-01-17T11:59:31.038Z,101247.22
2023-01-17T12:03:08.600Z,101282.13
2023-01-17T12:06:56.165Z,101207.44
2023-01-17T12:10:07.210Z,101271.34
2023-01-17T12:13:41.322Z,101217.97
2023-01-17T12:16:56.714Z,101275.91
2023-01-17T12:20:06.852Z,101249.72
2023-01-17T12:23:27.793Z,101252.34
2023-01-17T12:26:43.626Z,101254.72
2023-01-17T12:30:26.411Z,101267.97
2023-01-17T12:33:40.272Z,101271.16
2023-01-17T12:37:25.248Z,101266.53
2023-01-17T12:40:41.125Z,101245.66
2023-01-17T12:43:46.586Z,101244.31
2023-01-17T12:47:04.600Z,101258.59
2023-01-17T12:50:47.116Z,101251.44
2023-01-17T12:54:00.357Z,101225.84
2023-01-17T12:57:14.115Z,101241.38
2023-01-17T13:00:25.325Z,101245.75
2023-01-17T13:03:44.868Z,101245.34
2023-01-17T13:07:13.722Z,101243.72
2023-01-17T13:10:38.893Z,101236.78
2023-01-17T13:13:44.422Z,101229.81
2023-01-17T13:16:58.476Z,101252.06
2023-01-17T13:20:08.731Z,101251.03
2023-01-17T13:23:29.016Z,101249.50
2023-01-17T13:26:53.779Z,101246.44
2023-01-17T13:30:33.150Z,101253.63
2023-01-17T13:33:59.633Z,101253.75
2023-01-17T13:37:34.234Z,101241.38
2023-01-17T13:41:02.598Z,101254.81
2023-01-17T13:44:25.319Z,101246.44
2023-01-17T13:47:30.579Z,101257.19
2023-01-17T13:50:58.502Z,101260.09
2023-01-17T13:54:03.998Z,101255.63
2023-01-17T13:57:29.911Z,101253.53
2023-01-17T14:00:37.234Z,101288.72
2023-01-17T14:03:59.361Z,101282.31
2023-01-17T14:07:20.639Z,101278.34
2023-01-17T14:10:31.111Z,101273.91
2023-01-17T14:13:40.155Z,101279.31
2023-01-17T14:16:46.260Z,101293.44
2023-01-17T14:19:56.884Z,101295.53
2023-01-17T14:23:16.159Z,101292.69
2023-01-17T14:26:22.998Z,101305.84
2023-01-17T14:29:48.184Z,101299.59
2023-01-17T14:33:06.032Z,101302.81
2023-01-17T14:36:33.979Z,101293.16
2023-01-17T14:39:48.882Z,101263.41
2023-01-17T14:43:02.259Z,101300.56
2023-01-17T14:46:10.186Z,101299.44
2023-01-17T14:49:26.711Z,101305.88
2023-01-17T14:52:30.752Z,101256.25
2023-01-17T14:55:35.421Z,101298.63
2023-01-17T14:58:42.506Z,101310.38
2023-01-17T15:02:06.747Z,101273.59
2023-01-17T15:05:15.149Z,101304.56
2023-01-17T15:08:23.114Z,101300.22
2023-01-17T15:11:33.574Z,101309.63
2023-01-17T15:14:42.391Z,101322.88
2023-01-17T15:17:46.677Z,101321.94
2023-01-17T15:20:56.969Z,101321.25
2023-01-17T15:24:04.644Z,101311.22
2023-01-17T15:27:09.311Z,101320.69
2023-01-17T15:30:16.808Z,101304.78
2023-01-17T15:33:21.852Z,101313.72
2023-01-17T15:36:33.670Z,101305.84
2023-01-17T15:39:42.047Z,101346.78
2023-01-17T15:42:52.745Z,101349.47
2023-01-17T15:45:58.192Z,101351.09
2023-01-17T15:49:19.304Z,101364.75
2023-01-17T15:52:23.800Z,101363.19
2023-01-17T15:55:35.936Z,101348.25
2023-01-17T15:58:40.359Z,101362.03
2023-01-17T16:01:53.255Z,101313.31
2023-01-17T16:04:58.039Z,101370.03
2023-01-17T16:08:05.513Z,101390.56
2023-01-17T16:11:12.273Z,101363.13
2023-01-17T16:14:16.180Z,101372.38
2023-01-17T16:17:20.397Z,101398.56
2023-01-17T16:20:51.037Z,101401.84
2023-01-17T16:23:55.969Z,101388.81
2023-01-17T16:27:00.010Z,101384.66
2023-01-17T16:30:04.349Z,101376.88
2023-01-17T16:33:12.641Z,101394.25
2023-01-17T16:36:17.689Z,101405.69
2023-01-17T16:39:22.265Z,101425.63
2023-01-17T16:42:28.509Z,101386.22
2023-01-17T16:45:40.019Z,101409.56
2023-01-17T16:48:44.490Z,101416.19
2023-01-17T16:51:48.705Z,101445.78
2023-01-17T16:54:53.590Z,101452.94
2023-01-17T16:57:59.149Z,101473.41
2023-01-17T17:01:03.367Z,101469.97
2023-01-17T17:04:07.401Z,101464.22
2023-01-17T17:07:11.865Z,101419.69
2023-01-17T17:10:20.936Z,101483.78
2023-01-17T17:13:25.133Z,101449.09
2023-01-17T17:16:34.843Z,101495.25
2023-01-17T17:19:40.387Z,101503.34
2023-01-17T17:22:45.101Z,101500.47
2023-01-17T17:25:56.798Z,101477.16
2023-01-17T17:29:01.610Z,101491.66
2023-01-17T17:32:07.796Z,101516.63
2023-01-17T17:35:11.726Z,101470.31
2023-01-17T17:38:17.144Z,101487.44
2023-01-17T17:41:24.534Z,101500.69
2023-01-17T17:44:28.786Z,101508.38
2023-01-17T17:47:33.041Z,101521.75
2023-01-17T17:50:37.439Z,101532.81
2023-01-17T17:53:41.508Z,101522.66
2023-01-17T17:56:49.044Z,101530.41
2023-01-17T17:59:56.889Z,101518.50
2023-01-17T18:03:00.964Z,101523.72
2023-01-17T18:06:13.194Z,101547.28
2023-01-17T18:09:17.698Z,101558.28
2023-01-17T18:12:21.811Z,101562.97
2023-01-17T18:15:26.011Z,101497.75
2023-01-17T18:18:32.239Z,101563.31
2023-01-17T18:21:39.094Z,101568.56
2023-01-17T18:24:43.196Z,101577.94
2023-01-17T18:27:47.702Z,101582.75
2023-01-17T18:30:51.634Z,101600.75
2023-01-17T18:33:57.189Z,101606.91
2023-01-17T18:37:01.393Z,101598.81
2023-01-17T18:40:07.798Z,101606.38
2023-01-17T18:43:12.136Z,101598.47
2023-01-17T18:46:17.899Z,101603.88
2023-01-17T18:49:22.228Z,101627.06
2023-01-17T18:52:26.324Z,101612.19
2023-01-17T18:55:30.293Z,101616.88
2023-01-17T18:58:39.000Z,101628.97
2023-01-17T19:05:22.531Z,101626.50
2023-01-17T19:08:26.605Z,101641.94
2023-01-17T19:11:30.906Z,101582.75
2023-01-17T19:14:35.156Z,101665.31
2023-01-17T19:17:39.242Z,101656.25
2023-01-17T19:20:43.360Z,101657.72
2023-01-17T19:23:47.820Z,101677.59
2023-01-17T19:26:53.900Z,101669.06
2023-01-17T19:29:57.892Z,101655.84
2023-01-17T19:33:02.094Z,101676.53
2023-01-17T19:36:09.805Z,101691.75
2023-01-17T19:39:14.166Z,101683.16
2023-01-17T19:42:18.331Z,101698.78
2023-01-17T19:45:22.823Z,101695.44
2023-01-17T19:48:28.517Z,101704.25
2023-01-17T19:51:32.800Z,101714.41
2023-01-17T19:54:36.892Z,101686.00
2023-01-17T19:57:41.198Z,101705.22
2023-01-17T20:00:46.736Z,101729.66
2023-01-17T20:03:54.538Z,101730.00
2023-01-17T20:06:59.425Z,101730.31
2023-01-17T20:10:03.716Z,101751.16
2023-01-17T20:13:07.772Z,101722.69
2023-01-17T20:16:15.207Z,101680.09
2023-01-17T20:19:19.314Z,101755.06
2023-01-17T20:22:23.637Z,101729.63
2023-01-17T20:25:27.666Z,101679.31
2023-01-17T20:28:34.261Z,101767.69
2023-01-17T20:31:39.231Z,101756.03
2023-01-17T20:34:45.409Z,101676.78
2023-01-17T20:37:53.111Z,101743.19
2023-01-17T20:40:57.222Z,101772.91
2023-01-17T20:44:02.700Z,101772.41
2023-01-17T20:47:07.465Z,101741.09
2023-01-17T20:50:12.782Z,101775.44
2023-01-17T20:53:17.321Z,101779.94
2023-01-17T20:56:21.800Z,101781.84
2023-01-17T20:59:27.354Z,101791.16
2023-01-17T21:02:31.713Z,101763.97
2023-01-17T21:05:35.883Z,101777.63
2023-01-17T21:08:42.568Z,101756.84
2023-01-17T21:11:46.834Z,101734.75
2023-01-17T21:14:52.049Z,101764.56
2023-01-17T21:17:56.460Z,101764.38
2023-01-17T21:21:23.997Z,101789.25
2023-01-17T21:24:29.331Z,101767.38
2023-01-17T21:27:33.405Z,101778.44
2023-01-17T21:30:37.651Z,101775.81
2023-01-17T21:33:41.587Z,101755.53
2023-01-17T21:36:45.659Z,101751.69
2023-01-17T21:39:55.598Z,101813.63
2023-01-17T21:42:59.760Z,101787.97
2023-01-17T21:46:05.702Z,101820.63
2023-01-17T21:49:12.536Z,101812.63
2023-01-17T21:52:19.567Z,101822.44
2023-01-17T21:55:45.892Z,101790.34
2023-01-17T21:58:54.603Z,101800.59
2023-01-17T22:01:59.085Z,101836.81
2023-01-17T22:05:03.375Z,101816.09
2023-01-17T22:08:13.296Z,101793.38
2023-01-17T22:11:19.904Z,101837.13
2023-01-17T22:14:24.124Z,101840.16
2023-01-17T22:17:30.537Z,101834.75
2023-01-17T22:20:35.384Z,101864.31
2023-01-17T22:23:40.661Z,101807.06
2023-01-17T22:26:44.688Z,101881.88
2023-01-17T22:29:48.668Z,101835.84
2023-01-17T22:32:52.937Z,101853.22
2023-01-17T22:36:00.566Z,101868.81
2023-01-17T22:39:05.206Z,101880.72
2023-01-17T22:42:09.275Z,101875.03
2023-01-17T22:45:13.802Z,101792.72
2023-01-17T22:48:17.797Z,101911.47
2023-01-17T22:51:24.153Z,101918.00
2023-01-17T22:54:28.322Z,101929.41
2023-01-17T22:57:32.191Z,101926.75
2023-01-17T23:00:36.637Z,101910.53
2023-01-17T23:03:41.751Z,101922.00
2023-01-17T23:06:45.980Z,101915.56
2023-01-17T23:09:50.077Z,101915.69
2023-01-17T23:12:54.020Z,101911.47
2023-01-17T23:16:16.711Z,101927.50
2023-01-17T23:19:23.955Z,101917.78
2023-01-17T23:22:30.719Z,101938.75
2023-01-17T23:25:34.624Z,101913.38
2023-01-17T23:28:38.722Z,101935.91
2023-01-17T23:31:42.632Z,101937.88
2023-01-17T23:34:48.561Z,101948.19
2023-01-17T23:38:11.029Z,101937.28
2023-01-17T23:41:33.469Z,101934.91
2023-01-17T23:44:37.365Z,101894.06
2023-01-17T23:47:41.528Z,101929.59
2023-01-17T23:50:47.816Z,101881.44
2023-01-17T23:53:57.872Z,101935.00
2023-01-17T23:57:02.974Z,101923.00
